Discovery Bay, Washington
Current Conditions -  °F | °C
As of 5:56 PM on Sunday 25 Jan 2015 (Local Time) from KNUW Reporting Station
Light Fog Light Fog  
Wind Chill: 48°   Ceiling: 12000
Heat Index: 48°   Visibility: 7mi
Dew Point: 44°   Wind: 0mph
Humidity: 86%   Direction: NA
Pressure: 30.07"   Gusts: NA
Location:  48.026°N, 122.859°W
Report Text: KNUW 260156Z 00000KT 7SM BCFG FEW009 SCT060 BKN120 09/07 A3007 RMK AO2 SLP188 T00890067 VISNO E $
Loading
Personal Weather Stations






























Interactive Weather Map New forecast layout! Learn more

10-Day Weather Forecast

Advertisements
Track Severe Weather on mobile